Time;durP1;ratioP1;P1;durP2;ratioP2;P2;SDS_P1;SDS_P2;PMS_P1;PMS_P2;Temp;Humidity;BMP_temperature;BMP_pressure;BME280_temperature;BME280_humidity;BME280_pressure;Samples;Min_cycle;Max_cycle;Signal;HPM_P1;HPM_P2
2022/03/18 00:02:22;;;;;;;18.07;9.13;;;6.00;99.90;;;;;;4955438;28;20176;-67
2022/03/18 00:04:51;;;;;;;11.67;8.80;;;5.90;99.90;;;;;;4955392;28;20526;-66
2022/03/18 00:07:18;;;;;;;15.70;8.40;;;5.90;99.90;;;;;;4955196;28;20196;-66
2022/03/18 00:09:44;;;;;;;18.60;9.30;;;5.80;99.90;;;;;;4955293;28;20172;-67
2022/03/18 00:12:10;;;;;;;19.90;9.97;;;5.70;99.90;;;;;;4955088;28;20569;-66
2022/03/18 00:14:39;;;;;;;24.80;11.23;;;5.70;99.90;;;;;;4955540;28;20179;-67
2022/03/18 00:17:09;;;;;;;22.23;11.00;;;5.70;99.90;;;;;;4955157;28;20188;-67
2022/03/18 00:19:36;;;;;;;23.23;9.70;;;5.90;99.90;;;;;;4954896;28;20704;-67
2022/03/18 00:22:02;;;;;;;23.50;9.87;;;6.00;99.90;;;;;;4954734;28;20177;-66
2022/03/18 00:24:28;;;;;;;30.60;13.80;;;6.10;99.90;;;;;;4955354;28;20177;-66
2022/03/18 00:26:54;;;;;;;30.77;11.80;;;6.10;99.90;;;;;;4955121;28;20180;-67
2022/03/18 00:29:20;;;;;;;19.53;9.43;;;6.20;99.90;;;;;;4954932;28;20228;-68
2022/03/18 00:31:46;;;;;;;30.77;9.77;;;6.20;99.90;;;;;;4954921;28;20949;-68
2022/03/18 00:34:11;;;;;;;24.00;9.67;;;6.10;99.90;;;;;;4953649;29;20180;-66
2022/03/18 00:36:37;;;;;;;21.63;9.90;;;6.10;99.90;;;;;;4953301;29;21142;-67
2022/03/18 00:39:03;;;;;;;20.60;10.60;;;6.00;99.90;;;;;;4955132;28;20168;-66
2022/03/18 00:41:30;;;;;;;18.03;10.57;;;6.00;99.90;;;;;;4954916;28;20169;-66
2022/03/18 00:43:56;;;;;;;16.63;9.70;;;5.80;99.90;;;;;;4953835;29;20293;-66
2022/03/18 00:46:23;;;;;;;17.47;9.67;;;5.70;99.90;;;;;;4953407;29;20204;-66
2022/03/18 00:54:17;;;;;;;15.87;9.40;;;5.40;99.90;;;;;;4954930;29;20224;-66
2022/03/18 00:56:43;;;;;;;17.73;9.40;;;5.30;99.90;;;;;;4953421;28;20267;-66
2022/03/18 00:59:10;;;;;;;18.47;9.57;;;5.20;99.90;;;;;;4954782;28;20168;-66
2022/03/18 01:01:35;;;;;;;17.67;9.23;;;5.30;99.90;;;;;;4954435;28;20633;-66
2022/03/18 01:04:02;;;;;;;14.57;9.57;;;5.20;99.90;;;;;;4954556;28;20255;-66
2022/03/18 01:06:28;;;;;;;15.50;9.40;;;5.30;99.90;;;;;;4954284;28;20645;-66
2022/03/18 01:08:54;;;;;;;18.53;9.80;;;5.30;99.90;;;;;;4954893;28;20200;-66
2022/03/18 01:11:20;;;;;;;17.30;8.90;;;5.30;99.90;;;;;;4954470;28;20747;-66
2022/03/18 01:13:46;;;;;;;14.97;9.60;;;5.30;99.90;;;;;;4954744;28;20181;-65
2022/03/18 01:16:11;;;;;;;21.60;10.00;;;5.40;99.90;;;;;;4954544;28;20177;-67
2022/03/18 01:18:37;;;;;;;19.43;9.63;;;5.50;99.90;;;;;;4954652;28;20180;-67
2022/03/18 01:21:03;;;;;;;17.73;8.87;;;5.50;99.90;;;;;;4954146;28;20627;-67
2022/03/18 01:23:29;;;;;;;18.60;9.60;;;5.50;99.90;;;;;;4953398;29;20169;-66
2022/03/18 01:25:55;;;;;;;15.90;9.20;;;5.50;99.90;;;;;;4954516;28;20644;-65
2022/03/18 01:28:21;;;;;;;15.80;9.20;;;5.40;99.90;;;;;;4954537;28;20628;-66
2022/03/18 01:30:47;;;;;;;15.17;9.00;;;5.30;99.90;;;;;;4954189;28;20323;-66
2022/03/18 01:33:13;;;;;;;14.73;9.33;;;5.30;99.90;;;;;;4954482;28;20185;-67
2022/03/18 01:35:38;;;;;;;16.10;8.90;;;5.30;99.90;;;;;;4957704;28;20576;-66
2022/03/18 01:38:04;;;;;;;17.50;9.33;;;5.30;99.90;;;;;;4957850;28;20184;-67
2022/03/18 01:40:29;;;;;;;25.63;10.27;;;5.40;99.90;;;;;;4957797;28;20239;-67
2022/03/18 01:42:56;;;;;;;21.97;9.57;;;5.30;99.90;;;;;;4957961;28;20188;-66
2022/03/18 01:45:22;;;;;;;19.23;9.63;;;5.40;99.90;;;;;;4958054;28;20204;-67
2022/03/18 01:47:47;;;;;;;15.40;9.30;;;5.40;99.90;;;;;;4957583;28;20272;-67
2022/03/18 01:50:14;;;;;;;17.40;9.27;;;5.50;99.90;;;;;;4957231;28;20669;-67
2022/03/18 01:52:41;;;;;;;14.97;9.47;;;5.50;99.90;;;;;;4957616;28;20223;-67
2022/03/18 01:55:07;;;;;;;18.90;9.73;;;5.40;99.90;;;;;;4957677;28;20176;-66
2022/03/18 01:57:33;;;;;;;26.23;10.40;;;5.40;99.90;;;;;;4957690;28;20185;-67
2022/03/18 01:59:58;;;;;;;16.20;10.10;;;5.30;99.90;;;;;;4957554;28;20641;-66
2022/03/18 02:02:25;;;;;;;21.73;11.10;;;5.30;99.90;;;;;;4957395;28;20181;-66
2022/03/18 02:04:51;;;;;;;19.97;10.47;;;5.20;99.90;;;;;;4957178;28;20177;-66
2022/03/18 02:07:17;;;;;;;21.77;10.43;;;5.10;99.90;;;;;;4957309;28;20208;-67
2022/03/18 02:09:44;;;;;;;19.37;10.23;;;5.10;99.90;;;;;;4957376;28;20280;-66
2022/03/18 02:12:11;;;;;;;21.33;11.20;;;5.00;99.90;;;;;;4957380;28;20278;-66
2022/03/18 02:14:40;;;;;;;17.27;11.03;;;5.00;99.90;;;;;;4957543;28;20177;-66
2022/03/18 02:17:07;;;;;;;18.93;10.90;;;5.00;99.90;;;;;;4957133;28;20169;-67
2022/03/18 02:19:34;;;;;;;20.67;11.47;;;5.00;99.90;;;;;;4956868;28;20268;-67
2022/03/18 02:22:03;;;;;;;22.00;11.00;;;4.90;99.90;;;;;;4957117;28;20267;-66
2022/03/18 02:24:29;;;;;;;21.73;12.47;;;4.90;99.90;;;;;;4957293;28;20200;-67
2022/03/18 02:26:55;;;;;;;22.97;10.87;;;5.00;99.90;;;;;;4957130;28;20223;-66
2022/03/18 02:29:22;;;;;;;20.33;9.70;;;5.10;99.90;;;;;;4956946;28;20239;-67
2022/03/18 02:31:48;;;;;;;15.90;9.87;;;5.20;99.90;;;;;;4956734;28;20572;-65
2022/03/18 02:34:14;;;;;;;22.50;10.67;;;5.20;99.90;;;;;;4955352;28;20181;-65
2022/03/18 02:36:40;;;;;;;21.00;11.87;;;5.30;99.90;;;;;;4956847;28;20204;-67
2022/03/18 02:39:06;;;;;;;21.60;12.20;;;5.30;99.90;;;;;;4957233;28;20633;-66
2022/03/18 02:41:35;;;;;;;21.10;11.47;;;5.20;99.90;;;;;;4956656;28;20653;-66
2022/03/18 02:44:01;;;;;;;26.30;13.13;;;5.00;99.90;;;;;;4956866;28;20661;-65
2022/03/18 02:46:27;;;;;;;24.00;12.27;;;4.90;99.90;;;;;;4955380;28;20194;-65
2022/03/18 02:48:53;;;;;;;22.67;12.70;;;4.70;99.90;;;;;;4956495;28;20184;-67
2022/03/18 02:51:19;;;;;;;24.03;12.23;;;4.60;99.90;;;;;;4956454;28;20201;-65
2022/03/18 02:53:45;;;;;;;24.00;12.57;;;4.50;99.90;;;;;;4956506;28;20181;-66
2022/03/18 02:56:12;;;;;;;26.83;12.13;;;4.60;99.90;;;;;;4956481;28;20187;-66
2022/03/18 02:58:38;;;;;;;24.07;12.77;;;4.50;99.90;;;;;;4955539;29;20315;-67
2022/03/18 03:01:04;;;;;;;27.60;11.70;;;4.50;99.90;;;;;;4956171;28;20287;-66
2022/03/18 03:03:30;;;;;;;20.30;12.40;;;4.50;99.90;;;;;;4956186;28;20621;-67
2022/03/18 03:08:40;;;;;;;19.30;12.43;;;4.50;99.90;;;;;;4956713;29;20175;-67
2022/03/18 03:11:07;;;;;;;23.57;12.57;;;4.50;99.90;;;;;;4956229;28;20279;-67
2022/03/18 03:13:33;;;;;;;28.30;12.60;;;4.50;99.90;;;;;;4956385;28;20172;-66
2022/03/18 03:15:59;;;;;;;24.13;12.80;;;4.40;99.90;;;;;;4955841;28;20177;-66
2022/03/18 03:18:26;;;;;;;21.37;11.97;;;4.30;99.90;;;;;;4956283;28;20200;-67
2022/03/18 03:20:52;;;;;;;20.37;12.40;;;4.30;99.90;;;;;;4956011;28;20184;-66
2022/03/18 03:23:18;;;;;;;22.43;12.67;;;4.30;99.90;;;;;;4956016;28;20532;-66
2022/03/18 03:25:44;;;;;;;24.10;12.33;;;4.30;99.90;;;;;;4956345;28;20260;-66
2022/03/18 03:28:09;;;;;;;22.50;13.17;;;4.40;99.90;;;;;;4955824;28;20176;-66
2022/03/18 03:30:35;;;;;;;23.03;13.40;;;4.30;99.90;;;;;;4955039;28;20233;-66
2022/03/18 03:33:01;;;;;;;22.77;12.30;;;4.20;99.90;;;;;;4955964;28;20181;-66
2022/03/18 03:35:27;;;;;;;20.17;12.17;;;4.20;99.90;;;;;;4955894;28;20223;-66
2022/03/18 03:37:52;;;;;;;23.57;12.20;;;4.20;99.90;;;;;;4955751;28;20176;-67
2022/03/18 03:40:19;;;;;;;25.87;12.47;;;4.30;99.90;;;;;;4955655;28;20600;-66
2022/03/18 03:42:45;;;;;;;17.87;12.83;;;4.30;99.90;;;;;;4955737;28;20169;-66
2022/03/18 03:45:12;;;;;;;23.50;12.43;;;4.40;99.90;;;;;;4955363;28;20263;-66
2022/03/18 03:47:40;;;;;;;29.37;15.90;;;4.40;99.90;;;;;;4955334;28;20180;-66
2022/03/18 03:50:07;;;;;;;17.90;13.53;;;4.50;99.90;;;;;;4955643;28;20172;-66
2022/03/18 03:52:34;;;;;;;22.33;12.70;;;4.60;99.90;;;;;;4955360;28;20320;-66
2022/03/18 03:54:59;;;;;;;16.93;11.77;;;4.60;99.90;;;;;;4955825;28;20183;-66
2022/03/18 03:57:25;;;;;;;20.33;14.60;;;4.60;99.90;;;;;;4954979;28;20570;-66
2022/03/18 03:59:50;;;;;;;24.87;13.53;;;4.60;99.90;;;;;;4954998;28;20168;-65
2022/03/18 04:02:16;;;;;;;20.73;14.30;;;4.70;99.90;;;;;;4955254;28;20537;-65
2022/03/18 04:04:42;;;;;;;28.63;15.40;;;4.80;99.90;;;;;;4955555;28;20168;-65
2022/03/18 04:07:08;;;;;;;28.80;14.43;;;4.90;99.90;;;;;;4954014;29;20180;-67
2022/03/18 04:09:34;;;;;;;22.40;13.40;;;4.80;99.90;;;;;;4955244;28;20173;-65
2022/03/18 04:11:59;;;;;;;22.10;13.23;;;4.80;99.90;;;;;;4954950;28;20222;-65
2022/03/18 04:14:25;;;;;;;19.60;13.33;;;4.70;99.90;;;;;;4954742;28;20180;-66
2022/03/18 04:16:50;;;;;;;25.73;15.93;;;4.70;99.90;;;;;;4954712;28;20219;-65
2022/03/18 04:19:17;;;;;;;23.80;14.27;;;4.70;99.90;;;;;;4955180;28;20169;-65
2022/03/18 04:21:43;;;;;;;20.30;12.27;;;4.70;99.90;;;;;;4954750;28;20184;-65
2022/03/18 04:24:09;;;;;;;20.77;12.27;;;4.70;99.90;;;;;;4954906;28;20191;-66
2022/03/18 04:26:35;;;;;;;26.20;13.00;;;4.70;99.90;;;;;;4954832;28;20169;-66
2022/03/18 04:29:00;;;;;;;19.80;12.77;;;4.70;99.90;;;;;;4954288;28;20228;-66
2022/03/18 04:31:26;;;;;;;23.00;13.63;;;4.60;99.90;;;;;;4954508;28;20665;-66
2022/03/18 04:33:53;;;;;;;19.27;12.60;;;4.60;99.90;;;;;;4954907;28;20292;-66
2022/03/18 04:36:18;;;;;;;22.47;13.47;;;4.60;99.90;;;;;;4953405;29;20267;-66
2022/03/18 04:38:44;;;;;;;20.47;13.03;;;4.60;99.90;;;;;;4955202;28;20674;-66
2022/03/18 04:41:10;;;;;;;23.83;13.20;;;4.60;99.90;;;;;;4954349;28;20188;-66
2022/03/18 04:43:35;;;;;;;28.07;13.40;;;4.50;99.90;;;;;;4954432;28;20176;-65
2022/03/18 04:46:01;;;;;;;26.03;13.37;;;4.40;99.90;;;;;;4954524;28;20180;-66
2022/03/18 04:48:26;;;;;;;27.23;13.97;;;4.30;99.90;;;;;;4954719;28;20636;-66
2022/03/18 04:50:52;;;;;;;27.97;14.83;;;4.30;99.90;;;;;;4954301;28;20208;-67
2022/03/18 04:53:18;;;;;;;20.07;14.70;;;4.20;99.90;;;;;;4954647;28;20212;-66
2022/03/18 04:55:44;;;;;;;29.60;15.53;;;4.20;99.90;;;;;;4954483;28;20192;-66
2022/03/18 04:58:09;;;;;;;32.87;15.73;;;4.20;99.90;;;;;;4953757;28;20196;-66
2022/03/18 05:00:36;;;;;;;28.90;15.37;;;4.20;99.90;;;;;;4954418;28;20252;-66
2022/03/18 05:03:02;;;;;;;25.60;14.57;;;4.10;99.90;;;;;;4954529;28;20177;-66
2022/03/18 05:05:28;;;;;;;26.57;16.23;;;4.00;99.90;;;;;;4954590;28;20177;-66
2022/03/18 05:07:54;;;;;;;29.40;16.03;;;3.90;99.90;;;;;;4954596;28;20276;-67
2022/03/18 05:10:20;;;;;;;22.70;15.57;;;4.00;99.90;;;;;;4957053;28;20181;-66
2022/03/18 05:12:46;;;;;;;25.33;15.03;;;3.90;99.90;;;;;;4957481;28;20184;-66
2022/03/18 05:15:12;;;;;;;25.37;15.27;;;3.90;99.90;;;;;;4958029;28;20536;-66
2022/03/18 05:17:39;;;;;;;23.60;15.33;;;3.90;99.90;;;;;;4958037;28;20216;-67
2022/03/18 05:20:10;;;;;;;36.07;15.50;;;3.90;99.90;;;;;;4958306;28;20224;-67
2022/03/18 05:22:35;;;;;;;24.53;14.67;;;3.90;99.90;;;;;;4957961;28;20203;-67
2022/03/18 05:25:01;;;;;;;22.03;15.03;;;3.80;99.90;;;;;;4957573;28;20255;-67
2022/03/18 05:27:27;;;;;;;33.03;15.60;;;3.90;99.90;;;;;;4957160;28;20169;-66
2022/03/18 05:29:52;;;;;;;24.37;15.40;;;4.00;99.90;;;;;;4957615;28;20231;-67
2022/03/18 05:32:19;;;;;;;43.03;17.10;;;4.10;99.90;;;;;;4957104;28;20664;-65
2022/03/18 05:34:45;;;;;;;48.77;16.60;;;4.10;99.90;;;;;;4957881;28;20242;-66
2022/03/18 05:37:11;;;;;;;44.27;17.77;;;4.10;99.90;;;;;;4957235;28;20652;-66
2022/03/18 05:39:36;;;;;;;27.30;15.00;;;4.20;99.90;;;;;;4956173;28;20259;-67
2022/03/18 05:42:02;;;;;;;25.70;15.23;;;4.20;99.90;;;;;;4955369;29;20196;-66
2022/03/18 05:44:28;;;;;;;29.10;15.33;;;4.20;99.90;;;;;;4957729;28;20169;-66
2022/03/18 05:46:54;;;;;;;29.33;15.00;;;4.20;99.90;;;;;;4957258;28;20181;-67
2022/03/18 05:49:19;;;;;;;27.97;15.80;;;4.20;99.90;;;;;;4957612;28;20665;-67
2022/03/18 05:51:46;;;;;;;26.73;15.00;;;4.20;99.90;;;;;;4956815;28;20572;-66
2022/03/18 05:54:12;;;;;;;27.20;15.00;;;4.10;99.90;;;;;;4956285;28;20176;-67
2022/03/18 05:56:53;;;;;;;33.53;15.93;;;4.20;99.90;;;;;;4956593;28;20181;-66
2022/03/18 05:59:27;;;;;;;57.87;19.77;;;4.10;99.90;;;;;;4957075;28;20192;-66
2022/03/18 06:01:54;;;;;;;31.43;16.37;;;4.00;99.90;;;;;;4955965;28;20193;-68
2022/03/18 06:04:20;;;;;;;26.53;15.90;;;4.00;99.90;;;;;;4956913;28;20211;-67
2022/03/18 06:06:47;;;;;;;27.90;15.93;;;4.00;99.90;;;;;;4957426;28;20177;-67
2022/03/18 06:11:59;;;;;;;35.00;16.93;;;4.20;99.90;;;;;;4956298;29;20324;-67
2022/03/18 06:14:27;;;;;;;40.93;17.60;;;4.30;99.90;;;;;;4956886;28;20649;-67
2022/03/18 06:16:55;;;;;;;40.17;17.07;;;4.40;99.90;;;;;;4956412;28;20256;-67
2022/03/18 06:19:21;;;;;;;40.17;15.90;;;4.60;99.90;;;;;;4956170;28;20181;-67
2022/03/18 06:21:48;;;;;;;35.83;16.13;;;4.80;99.90;;;;;;4955798;28;20183;-67
2022/03/18 06:24:14;;;;;;;34.20;15.07;;;5.00;99.90;;;;;;4955862;28;20181;-67
2022/03/18 06:26:40;;;;;;;40.63;16.03;;;5.20;99.90;;;;;;4955512;28;20177;-67
2022/03/18 06:29:06;;;;;;;64.37;18.03;;;5.40;99.90;;;;;;4955900;28;20224;-68
2022/03/18 06:31:33;;;;;;;40.50;16.00;;;5.50;99.90;;;;;;4956212;28;20211;-67
2022/03/18 06:33:59;;;;;;;40.77;15.90;;;5.60;99.90;;;;;;4956198;28;20168;-67
2022/03/18 06:36:25;;;;;;;37.93;15.90;;;5.50;99.90;;;;;;4955703;28;20173;-66
2022/03/18 06:38:51;;;;;;;46.23;16.27;;;5.50;99.90;;;;;;4955499;28;20193;-66
2022/03/18 06:41:19;;;;;;;32.17;16.17;;;5.60;99.90;;;;;;4955702;28;20180;-68
2022/03/18 06:43:47;;;;;;;40.77;15.40;;;5.90;99.90;;;;;;4956188;28;20663;-66
2022/03/18 06:46:14;;;;;;;40.07;16.67;;;6.00;99.90;;;;;;4955056;28;20200;-68
2022/03/18 06:48:43;;;;;;;41.10;15.90;;;6.20;99.90;;;;;;4954311;28;20169;-67
2022/03/18 06:51:09;;;;;;;36.37;16.33;;;6.50;99.90;;;;;;4955412;28;20239;-66
2022/03/18 06:53:35;;;;;;;26.80;14.50;;;6.70;99.90;;;;;;4955634;28;20260;-67
2022/03/18 06:56:04;;;;;;;34.37;14.43;;;7.30;99.90;;;;;;4955019;28;20208;-66
2022/03/18 06:58:30;;;;;;;24.50;14.17;;;8.10;99.90;;;;;;4953410;29;20177;-66
2022/03/18 07:00:56;;;;;;;22.23;13.03;;;9.20;99.90;;;;;;4954802;28;20322;-67
2022/03/18 07:03:21;;;;;;;26.03;13.27;;;10.10;99.90;;;;;;4955254;28;20236;-67
2022/03/18 07:05:47;;;;;;;28.07;13.53;;;10.70;99.90;;;;;;4955072;28;20177;-67
2022/03/18 07:08:13;;;;;;;30.37;12.23;;;11.80;98.10;;;;;;4954314;28;20231;-68
2022/03/18 07:10:39;;;;;;;18.30;12.57;;;13.00;94.40;;;;;;4954675;28;20168;-68
2022/03/18 07:13:05;;;;;;;22.60;12.33;;;14.10;91.50;;;;;;4954411;28;20169;-68
2022/03/18 07:15:30;;;;;;;27.43;12.70;;;14.80;85.80;;;;;;4954521;28;20191;-68
2022/03/18 07:17:59;;;;;;;21.23;12.80;;;15.70;80.80;;;;;;4953954;28;20212;-68
2022/03/18 07:20:36;;;;;;;22.50;13.70;;;16.30;76.50;;;;;;4953630;28;20632;-68
2022/03/18 07:23:03;;;;;;;26.30;13.67;;;16.60;74.20;;;;;;4954021;28;20200;-68
2022/03/18 07:25:29;;;;;;;22.38;12.40;;;17.80;71.40;;;;;;4954773;28;20204;-68
2022/03/18 07:27:56;;;;;;;26.23;13.02;;;18.70;65.50;;;;;;4954786;28;20629;-69
2022/03/18 07:30:22;;;;;;;22.55;11.35;;;19.50;62.10;;;;;;4954173;28;20240;-68
2022/03/18 07:32:48;;;;;;;29.33;12.95;;;20.00;58.90;;;;;;4953948;28;20267;-69
2022/03/18 07:35:14;;;;;;;28.45;13.38;;;20.70;56.80;;;;;;4954382;28;20184;-67
2022/03/18 07:37:43;;;;;;;22.08;12.25;;;21.60;54.80;;;;;;4953755;28;20185;-68
2022/03/18 07:40:11;;;;;;;27.73;12.32;;;21.90;52.80;;;;;;4954492;28;20263;-69
2022/03/18 07:42:41;;;;;;;29.30;12.15;;;21.70;52.30;;;;;;4954365;28;20200;-68
2022/03/18 07:45:08;;;;;;;50.20;16.95;;;22.20;50.70;;;;;;4954154;28;20177;-69
2022/03/18 07:47:34;;;;;;;60.38;16.83;;;22.10;49.40;;;;;;4954206;28;20187;-69
2022/03/18 07:49:59;;;;;;;31.17;10.98;;;22.50;48.80;;;;;;4954618;28;20263;-70
2022/03/18 07:52:26;;;;;;;27.73;10.77;;;22.00;48.40;;;;;;4953923;28;20217;-68
2022/03/18 07:54:51;;;;;;;23.85;10.65;;;22.50;47.50;;;;;;4954784;28;20184;-69
2022/03/18 07:57:17;;;;;;;25.00;9.13;;;21.50;47.60;;;;;;4954039;28;20264;-69
2022/03/18 07:59:42;;;;;;;17.98;9.88;;;20.70;48.90;;;;;;4954365;28;20175;-68
2022/03/18 08:02:08;;;;;;;17.08;9.88;;;20.70;49.50;;;;;;4954197;28;20188;-68
2022/03/18 08:04:34;;;;;;;21.63;9.68;;;21.00;49.30;;;;;;4954338;28;20663;-70
2022/03/18 08:07:03;;;;;;;35.03;10.63;;;21.00;48.80;;;;;;4953791;28;20180;-69
2022/03/18 08:09:29;;;;;;;18.83;10.57;;;20.90;48.70;;;;;;4954040;28;20224;-68
2022/03/18 08:11:55;;;;;;;27.33;11.73;;;20.40;49.90;;;;;;4954530;28;20247;-69
2022/03/18 08:14:22;;;;;;;33.35;11.60;;;20.60;48.80;;;;;;4954083;28;20215;-69
2022/03/18 08:16:48;;;;;;;33.10;12.23;;;21.10;49.10;;;;;;4953433;28;20738;-69
2022/03/18 08:19:13;;;;;;;22.20;11.20;;;21.90;48.30;;;;;;4953846;28;20248;-68
2022/03/18 08:21:39;;;;;;;14.10;9.05;;;22.70;46.80;;;;;;4952184;28;20176;-69
2022/03/18 08:24:05;;;;;;;16.67;9.85;;;21.70;46.20;;;;;;4954064;28;20180;-68
2022/03/18 08:26:34;;;;;;;18.52;9.80;;;22.00;46.00;;;;;;4952410;28;20184;-69
2022/03/18 08:28:59;;;;;;;16.92;6.80;;;22.30;46.40;;;;;;4938492;28;20262;-69
2022/03/18 08:31:26;;;;;;;15.15;7.68;;;21.10;45.90;;;;;;4934284;29;20720;-68
2022/03/18 08:33:51;;;;;;;22.90;9.57;;;21.30;46.40;;;;;;4934544;29;20500;-71
2022/03/18 08:36:17;;;;;;;16.52;8.30;;;20.90;47.50;;;;;;4933688;29;20173;-69
2022/03/18 08:38:42;;;;;;;17.88;8.77;;;21.30;46.50;;;;;;4934824;29;20621;-67
2022/03/18 08:41:08;;;;;;;15.07;7.82;;;20.50;47.30;;;;;;4942106;28;20177;-68
2022/03/18 08:43:34;;;;;;;9.80;5.75;;;20.30;48.10;;;;;;4944930;29;20179;-70
2022/03/18 08:46:00;;;;;;;8.23;5.13;;;19.20;48.00;;;;;;4958438;28;20191;-67
2022/03/18 08:48:25;;;;;;;10.88;5.50;;;17.80;49.30;;;;;;4956904;28;20172;-70
2022/03/18 08:50:51;;;;;;;11.93;5.40;;;17.60;50.40;;;;;;4957512;28;20208;-67
2022/03/18 08:53:16;;;;;;;8.77;5.55;;;16.70;51.80;;;;;;4957388;28;20202;-68
2022/03/18 08:55:42;;;;;;;10.55;4.78;;;16.40;53.50;;;;;;4956980;28;20164;-69
2022/03/18 08:58:08;;;;;;;8.27;5.27;;;16.00;52.80;;;;;;4957396;28;20182;-68
2022/03/18 09:00:43;;;;;;;9.90;5.23;;;15.30;54.60;;;;;;4956435;28;20267;-69
2022/03/18 09:03:09;;;;;;;9.50;5.50;;;15.90;55.30;;;;;;4956634;28;20176;-70
2022/03/18 09:05:35;;;;;;;9.47;4.90;;;15.70;54.20;;;;;;4951250;28;20180;-68
2022/03/18 09:08:00;;;;;;;9.33;4.80;;;15.10;55.70;;;;;;4949617;29;20392;-68
2022/03/18 09:10:26;;;;;;;7.93;5.00;;;16.10;54.00;;;;;;4957289;28;20637;-66
2022/03/18 09:12:59;;;;;;;8.83;5.03;;;15.50;54.50;;;;;;4957037;28;20236;-68
2022/03/18 09:15:25;;;;;;;11.80;5.50;;;16.30;53.20;;;;;;4956013;29;20157;-69
2022/03/18 09:17:51;;;;;;;9.90;4.87;;;16.50;53.70;;;;;;4945715;28;20189;-66
2022/03/18 09:20:17;;;;;;;6.90;4.77;;;16.40;52.10;;;;;;4937277;29;20632;-68
2022/03/18 09:22:42;;;;;;;14.57;4.73;;;16.00;52.90;;;;;;4938665;29;20626;-68
2022/03/18 09:25:09;;;;;;;10.70;5.00;;;15.80;53.40;;;;;;4938542;29;20224;-66
2022/03/18 09:27:34;;;;;;;10.27;4.27;;;16.10;53.80;;;;;;4936800;29;20192;-67
2022/03/18 09:30:00;;;;;;;7.53;4.80;;;15.90;52.10;;;;;;4936728;29;20225;-68
2022/03/18 09:32:29;;;;;;;9.63;4.73;;;15.50;52.50;;;;;;4937211;29;20212;-67
2022/03/18 09:34:58;;;;;;;8.65;4.63;;;16.00;52.80;;;;;;4937278;29;20209;-68
2022/03/18 09:37:24;;;;;;;8.23;5.03;;;16.80;51.50;;;;;;4937910;29;20618;-68
2022/03/18 09:39:50;;;;;;;12.07;4.88;;;17.00;50.80;;;;;;4937157;29;20224;-67
2022/03/18 09:42:15;;;;;;;6.82;4.70;;;17.30;50.70;;;;;;4937593;29;20173;-66
2022/03/18 09:44:41;;;;;;;7.18;4.72;;;16.60;50.10;;;;;;4937390;29;20173;-67
2022/03/18 09:47:08;;;;;;;5.90;4.20;;;16.00;51.20;;;;;;4937823;29;20528;-66
2022/03/18 09:49:35;;;;;;;6.47;4.30;;;15.60;51.90;;;;;;4936387;29;20597;-66
2022/03/18 09:52:02;;;;;;;5.60;4.20;;;15.00;51.50;;;;;;4936641;29;20208;-67
2022/03/18 09:54:30;;;;;;;9.47;4.63;;;15.20;52.40;;;;;;4936749;29;20165;-68
2022/03/18 09:56:56;;;;;;;8.30;3.80;;;15.80;52.00;;;;;;4937617;29;20181;-67
2022/03/18 09:59:24;;;;;;;5.43;3.93;;;15.80;50.50;;;;;;4937052;29;20271;-67
2022/03/18 10:02:10;;;;;;;4.47;4.00;;;15.70;51.20;;;;;;4936789;29;20197;-66
2022/03/18 10:04:51;;;;;;;5.53;3.97;;;16.00;51.10;;;;;;4937143;29;20173;-68
2022/03/18 10:07:17;;;;;;;6.73;4.33;;;15.50;51.60;;;;;;4937711;29;20248;-68
2022/03/18 10:09:42;;;;;;;6.67;4.80;;;15.50;52.40;;;;;;4937265;29;20189;-67
2022/03/18 10:12:30;;;;;;;6.67;4.47;;;15.50;51.60;;;;;;4937057;29;20209;-66
2022/03/18 10:15:09;;;;;;;5.37;3.77;;;15.50;52.20;;;;;;4937369;29;20184;-67
2022/03/18 10:17:42;;;;;;;4.97;3.43;;;15.50;50.50;;;;;;4936946;29;20188;-65
2022/03/18 10:20:40;;;;;;;6.33;3.47;;;15.60;49.80;;;;;;4936807;29;20188;-67
2022/03/18 10:23:15;;;;;;;4.30;3.23;;;15.70;49.40;;;;;;4955698;29;20268;-66
2022/03/18 10:25:52;;;;;;;4.17;3.00;;;15.10;50.80;;;;;;4937339;29;20249;-67
2022/03/18 10:28:37;;;;;;;5.20;2.90;;;15.00;50.40;;;;;;4937257;29;20571;-67
2022/03/18 10:31:19;;;;;;;6.27;3.33;;;15.10;50.00;;;;;;4934952;29;20279;-66
2022/03/18 10:37:04;;;;;;;4.07;3.20;;;15.00;50.50;;;;;;4936722;29;20183;-66
2022/03/18 10:39:43;;;;;;;12.57;4.50;;;14.70;52.00;;;;;;4937180;29;20224;-66
2022/03/18 10:42:14;;;;;;;7.70;3.80;;;14.80;52.80;;;;;;4935300;29;20316;-66
2022/03/18 10:44:50;;;;;;;5.23;4.73;;;14.40;54.20;;;;;;4936857;29;20169;-66
2022/03/18 10:47:30;;;;;;;8.43;5.97;;;14.80;55.10;;;;;;4935880;29;20183;-65
2022/03/18 10:50:11;;;;;;;9.07;4.40;;;14.90;55.60;;;;;;4936935;29;20173;-65
2022/03/18 10:52:36;;;;;;;8.70;4.67;;;15.30;54.30;;;;;;4935403;29;20695;-66
2022/03/18 10:55:26;;;;;;;9.10;5.43;;;15.10;54.10;;;;;;4935031;29;20177;-65
2022/03/18 10:57:53;;;;;;;7.30;4.33;;;15.30;54.50;;;;;;4936241;29;20253;-65
2022/03/18 11:00:24;;;;;;;9.45;4.70;;;16.20;53.90;;;;;;4934783;29;20197;-66
2022/03/18 11:02:51;;;;;;;4.97;3.90;;;17.20;51.50;;;;;;4936583;29;20170;-66
2022/03/18 11:05:21;;;;;;;6.80;4.25;;;17.30;50.00;;;;;;4936134;29;20178;-65
2022/03/18 11:07:50;;;;;;;9.50;4.75;;;16.10;51.40;;;;;;4935027;29;20361;-65
2022/03/18 11:13:04;;;;;;;5.23;4.60;;;15.80;53.40;;;;;;4936341;29;20208;-65
2022/03/18 11:15:31;;;;;;;9.63;5.13;;;15.80;52.50;;;;;;4935592;29;20169;-65
2022/03/18 11:17:57;;;;;;;9.13;3.67;;;15.50;53.40;;;;;;4936336;29;20172;-66
2022/03/18 11:20:26;;;;;;;9.03;3.50;;;15.70;52.80;;;;;;4935990;29;20179;-65
2022/03/18 11:22:51;;;;;;;6.37;3.40;;;15.70;52.20;;;;;;4935651;29;20268;-65
2022/03/18 11:25:19;;;;;;;4.47;2.80;;;15.60;52.50;;;;;;4936445;29;20570;-65
2022/03/18 11:27:46;;;;;;;5.70;3.00;;;15.70;51.50;;;;;;4935949;29;20181;-65
2022/03/18 11:30:22;;;;;;;6.37;3.23;;;16.20;51.60;;;;;;4935037;29;20221;-65
2022/03/18 11:33:06;;;;;;;8.60;3.57;;;15.70;51.40;;;;;;4935132;29;20684;-64
2022/03/18 11:35:52;;;;;;;4.38;3.00;;;15.90;52.10;;;;;;4935909;29;20185;-65
2022/03/18 11:38:23;;;;;;;11.27;3.70;;;16.30;51.10;;;;;;4935264;29;20201;-65
2022/03/18 11:41:02;;;;;;;5.33;3.07;;;16.40;51.60;;;;;;4935236;29;20260;-64
2022/03/18 11:43:36;;;;;;;13.27;3.27;;;15.80;51.10;;;;;;4935079;29;20650;-65
2022/03/18 11:46:13;;;;;;;5.70;3.20;;;15.30;52.20;;;;;;4935759;29;20189;-66
2022/03/18 11:49:14;;;;;;;6.07;3.47;;;14.90;53.40;;;;;;4934355;29;20534;-65
2022/03/18 11:51:42;;;;;;;3.23;2.93;;;15.00;53.70;;;;;;4934899;29;20233;-66
2022/03/18 11:54:10;;;;;;;4.30;2.97;;;14.60;53.50;;;;;;4935664;29;20665;-66
2022/03/18 11:56:47;;;;;;;8.37;3.70;;;14.70;53.70;;;;;;4934960;29;20185;-64
2022/03/18 11:59:28;;;;;;;5.33;3.00;;;15.10;53.10;;;;;;4935087;29;20180;-65
2022/03/18 12:02:06;;;;;;;4.57;3.00;;;15.20;51.70;;;;;;4935181;29;20172;-66
2022/03/18 12:04:50;;;;;;;3.43;2.97;;;15.00;52.60;;;;;;4935065;29;20205;-66
2022/03/18 12:07:28;;;;;;;5.33;3.77;;;15.30;52.70;;;;;;4935949;29;20169;-66
2022/03/18 12:09:58;;;;;;;4.27;3.10;;;14.60;53.60;;;;;;4934699;29;20648;-66
2022/03/18 12:12:29;;;;;;;10.33;4.10;;;14.40;54.20;;;;;;4935094;29;20224;-66
2022/03/18 12:14:57;;;;;;;3.67;2.83;;;14.30;53.90;;;;;;4933767;29;20169;-67
2022/03/18 12:17:23;;;;;;;3.57;2.70;;;14.70;53.20;;;;;;4934476;29;20181;-66
2022/03/18 12:19:52;;;;;;;8.33;3.60;;;14.70;53.40;;;;;;4934709;29;20192;-66
2022/03/18 12:22:19;;;;;;;3.23;2.43;;;14.80;53.10;;;;;;4934975;29;20182;-66
2022/03/18 12:24:47;;;;;;;6.33;3.43;;;14.60;51.70;;;;;;4935038;29;20177;-66
2022/03/18 12:27:15;;;;;;;6.73;2.73;;;14.60;52.30;;;;;;4934443;29;20184;-64
2022/03/18 12:29:40;;;;;;;5.37;3.10;;;14.50;51.90;;;;;;4935108;29;20225;-66
2022/03/18 12:32:16;;;;;;;5.83;2.83;;;14.40;53.00;;;;;;4934864;29;20254;-66
2022/03/18 12:34:47;;;;;;;7.40;3.10;;;14.90;52.90;;;;;;4935238;29;20177;-66
2022/03/18 12:37:17;;;;;;;5.17;2.70;;;15.10;52.00;;;;;;4934701;29;20192;-65
2022/03/18 12:39:43;;;;;;;5.73;2.50;;;14.90;51.60;;;;;;4935092;29;20185;-67
2022/03/18 12:42:11;;;;;;;5.63;2.37;;;14.70;50.30;;;;;;4934249;29;20660;-66
2022/03/18 12:44:36;;;;;;;4.83;2.77;;;14.80;50.50;;;;;;4935599;29;20223;-66
2022/03/18 12:47:05;;;;;;;4.83;2.60;;;14.60;51.40;;;;;;4933772;29;20221;-67
2022/03/18 12:49:35;;;;;;;3.67;2.70;;;14.50;51.80;;;;;;4933862;29;20191;-67
2022/03/18 12:52:01;;;;;;;7.57;2.90;;;14.50;51.30;;;;;;4932215;29;20220;-68
2022/03/18 12:54:27;;;;;;;5.90;3.00;;;14.70;51.50;;;;;;4933701;29;20646;-67
2022/03/18 12:56:53;;;;;;;4.87;2.87;;;14.60;51.00;;;;;;4934695;29;20204;-67
2022/03/18 12:59:19;;;;;;;4.00;2.90;;;14.50;51.10;;;;;;4934637;29;20256;-67
2022/03/18 13:01:56;;;;;;;6.17;3.20;;;14.60;51.50;;;;;;4934576;29;20200;-65